createdAt,value
2022-10-25T00:02:25.036Z,11.78
2022-10-25T00:04:51.775Z,11.78
2022-10-25T00:07:18.392Z,11.80
2022-10-25T00:09:45.032Z,11.81
2022-10-25T00:12:11.689Z,11.83
2022-10-25T00:14:38.321Z,11.85
2022-10-25T00:17:04.990Z,11.86
2022-10-25T00:19:31.573Z,11.87
2022-10-25T00:21:58.197Z,11.88
2022-10-25T00:24:24.858Z,11.88
2022-10-25T00:26:51.553Z,11.88
2022-10-25T00:29:18.418Z,11.88
2022-10-25T00:31:45.175Z,11.89
2022-10-25T00:34:11.774Z,11.90
2022-10-25T00:36:38.587Z,11.90
2022-10-25T00:39:05.199Z,11.90
2022-10-25T00:41:33.502Z,11.90
2022-10-25T00:44:38.134Z,11.90
2022-10-25T00:47:25.579Z,11.89
2022-10-25T00:50:01.338Z,11.87
2022-10-25T00:52:33.886Z,11.85
2022-10-25T00:55:02.950Z,11.84
2022-10-25T00:57:37.713Z,11.83
2022-10-25T01:00:07.065Z,11.82
2022-10-25T01:02:34.520Z,11.81
2022-10-25T01:05:01.916Z,11.79
2022-10-25T01:07:28.928Z,11.79
2022-10-25T01:09:56.744Z,11.77
2022-10-25T01:12:23.352Z,11.76
2022-10-25T01:14:52.264Z,11.72
2022-10-25T01:17:26.224Z,11.70
2022-10-25T01:20:28.415Z,11.66
2022-10-25T01:22:57.997Z,11.61
2022-10-25T01:25:36.969Z,11.58
2022-10-25T01:28:18.465Z,11.56
2022-10-25T01:31:07.012Z,11.54
2022-10-25T01:33:54.257Z,11.52
2022-10-25T01:36:37.796Z,11.49
2022-10-25T01:39:29.090Z,11.47
2022-10-25T01:42:30.784Z,11.45
2022-10-25T01:45:14.923Z,11.44
2022-10-25T01:47:47.506Z,11.45
2022-10-25T01:50:20.373Z,11.43
2022-10-25T01:52:47.051Z,11.42
2022-10-25T01:55:14.967Z,11.42
2022-10-25T01:57:52.186Z,11.42
2022-10-25T02:00:23.905Z,11.43
2022-10-25T02:03:18.089Z,11.42
2022-10-25T02:06:09.846Z,11.40
2022-10-25T02:08:45.277Z,11.37
2022-10-25T02:11:27.703Z,11.36
2022-10-25T02:14:15.461Z,11.33
2022-10-25T02:16:48.952Z,11.31
2022-10-25T02:19:20.881Z,11.29
2022-10-25T02:21:51.014Z,11.27
2022-10-25T02:24:23.344Z,11.25
2022-10-25T02:26:52.168Z,11.24
2022-10-25T02:29:20.907Z,11.22
2022-10-25T02:31:48.042Z,11.21
2022-10-25T02:34:15.182Z,11.23
2022-10-25T02:36:41.821Z,11.23
2022-10-25T02:39:08.635Z,11.24
2022-10-25T02:41:35.247Z,11.23
2022-10-25T02:44:01.878Z,11.22
2022-10-25T02:46:28.569Z,11.22
2022-10-25T02:48:55.234Z,11.23
2022-10-25T02:51:22.466Z,11.23
2022-10-25T02:53:49.505Z,11.23
2022-10-25T02:56:20.966Z,11.21
2022-10-25T02:58:50.010Z,11.20
2022-10-25T03:01:18.874Z,11.19
2022-10-25T03:03:45.733Z,11.18
2022-10-25T03:06:13.708Z,11.18
2022-10-25T03:08:41.946Z,11.17
2022-10-25T03:11:10.517Z,11.16
2022-10-25T03:13:37.338Z,11.14
2022-10-25T03:16:04.471Z,11.12
2022-10-25T03:18:31.153Z,11.10
2022-10-25T03:20:59.946Z,11.07
2022-10-25T03:23:27.497Z,11.06
2022-10-25T03:25:58.759Z,11.05
2022-10-25T03:28:26.930Z,11.04
2022-10-25T03:30:54.690Z,11.02
2022-10-25T03:33:21.423Z,11.01
2022-10-25T03:35:53.086Z,10.99
2022-10-25T03:38:19.767Z,10.99
2022-10-25T03:40:46.568Z,11.00
2022-10-25T03:43:13.258Z,11.00
2022-10-25T03:45:39.846Z,11.00
2022-10-25T03:48:06.595Z,10.99
2022-10-25T03:50:33.326Z,10.99
2022-10-25T03:52:59.993Z,10.99
2022-10-25T03:55:26.810Z,10.99
2022-10-25T03:57:53.464Z,10.98
2022-10-25T04:00:20.075Z,10.98
2022-10-25T04:02:46.790Z,10.97
2022-10-25T04:05:13.447Z,10.96
2022-10-25T04:07:40.052Z,10.96
2022-10-25T04:10:06.943Z,10.96
2022-10-25T04:12:33.524Z,10.97
2022-10-25T04:15:00.123Z,10.97
2022-10-25T04:17:26.778Z,10.97
2022-10-25T04:19:53.409Z,10.95
2022-10-25T04:22:20.092Z,10.95
2022-10-25T04:24:46.724Z,10.92
2022-10-25T04:27:13.435Z,10.90
2022-10-25T04:29:40.055Z,10.88
2022-10-25T04:32:07.152Z,10.86
2022-10-25T04:34:34.193Z,10.85
2022-10-25T04:37:00.826Z,10.84
2022-10-25T04:39:27.439Z,10.83
2022-10-25T04:41:54.242Z,10.83
2022-10-25T04:44:20.832Z,10.82
2022-10-25T04:46:48.871Z,10.81
2022-10-25T04:49:15.935Z,10.80
2022-10-25T04:51:43.057Z,10.78
2022-10-25T04:54:12.368Z,10.78
2022-10-25T04:56:39.789Z,10.77
2022-10-25T04:59:08.621Z,10.77
2022-10-25T05:01:35.818Z,10.77
2022-10-25T05:04:02.616Z,10.77
2022-10-25T05:06:29.363Z,10.77
2022-10-25T05:08:56.008Z,10.77
2022-10-25T05:11:24.558Z,10.77
2022-10-25T05:13:51.460Z,10.77
2022-10-25T05:16:22.586Z,10.77
2022-10-25T05:18:50.863Z,10.77
2022-10-25T05:21:18.246Z,10.76
2022-10-25T05:23:45.493Z,10.74
2022-10-25T05:26:15.667Z,10.73
2022-10-25T05:28:45.293Z,10.71
2022-10-25T05:31:23.921Z,10.63
2022-10-25T05:33:54.190Z,10.67
2022-10-25T05:36:21.953Z,10.65
2022-10-25T05:38:49.035Z,10.64
2022-10-25T05:41:17.137Z,10.63
2022-10-25T05:43:45.359Z,10.60
2022-10-25T05:46:16.477Z,10.56
2022-10-25T05:48:48.471Z,10.53
2022-10-25T05:51:33.088Z,10.49
2022-10-25T05:54:04.299Z,10.46
2022-10-25T05:56:32.520Z,10.44
2022-10-25T05:59:08.159Z,10.44
2022-10-25T06:01:36.454Z,10.46
2022-10-25T06:04:03.475Z,10.53
2022-10-25T06:06:30.356Z,10.56
2022-10-25T06:08:58.919Z,10.69
2022-10-25T06:11:27.079Z,10.80
2022-10-25T06:13:54.001Z,10.91
2022-10-25T06:16:21.451Z,11.03
2022-10-25T06:18:48.243Z,11.13
2022-10-25T06:21:24.812Z,11.24
2022-10-25T06:23:51.918Z,11.38
2022-10-25T06:26:24.856Z,11.52
2022-10-25T06:28:53.606Z,11.68
2022-10-25T06:31:20.421Z,11.85
2022-10-25T06:33:47.132Z,12.01
2022-10-25T06:36:18.941Z,12.17
2022-10-25T06:38:47.082Z,12.34
2022-10-25T06:41:17.026Z,12.42
2022-10-25T06:43:43.842Z,12.52
2022-10-25T06:46:32.593Z,12.61
2022-10-25T06:49:01.158Z,12.70
2022-10-25T06:51:28.927Z,12.72
2022-10-25T06:53:56.988Z,12.76
2022-10-25T06:56:25.047Z,12.80
2022-10-25T06:58:52.121Z,12.79
2022-10-25T07:01:20.534Z,12.87
2022-10-25T07:03:49.832Z,12.90
2022-10-25T07:06:28.851Z,12.96
2022-10-25T07:08:58.396Z,13.01
2022-10-25T07:11:27.305Z,13.00
2022-10-25T07:13:55.676Z,13.06
2022-10-25T07:16:22.337Z,13.08
2022-10-25T07:18:49.357Z,13.06
2022-10-25T07:21:17.223Z,13.10
2022-10-25T07:23:44.408Z,13.17
2022-10-25T07:26:14.335Z,13.24
2022-10-25T07:28:43.096Z,13.30
2022-10-25T07:31:27.854Z,13.36
2022-10-25T07:33:57.604Z,13.46
2022-10-25T07:36:24.887Z,13.51
2022-10-25T07:38:51.489Z,13.57
2022-10-25T07:41:18.811Z,13.58
2022-10-25T07:43:45.462Z,13.65
2022-10-25T07:46:12.069Z,13.72
2022-10-25T07:48:38.645Z,13.80
2022-10-25T07:51:11.761Z,13.88
2022-10-25T07:53:38.993Z,13.96
2022-10-25T07:56:07.003Z,14.06
2022-10-25T07:58:35.613Z,14.20
2022-10-25T08:01:05.661Z,14.39
2022-10-25T08:03:33.134Z,14.59
2022-10-25T08:06:00.606Z,14.80
2022-10-25T08:08:28.314Z,15.04
2022-10-25T08:10:55.921Z,15.21
2022-10-25T08:13:23.529Z,15.39
2022-10-25T08:15:54.903Z,15.74
2022-10-25T08:18:23.387Z,16.08
2022-10-25T08:21:01.663Z,16.35
2022-10-25T08:23:30.859Z,16.89
2022-10-25T08:25:57.498Z,17.40
2022-10-25T08:28:24.641Z,17.76
2022-10-25T08:30:54.652Z,18.27
2022-10-25T08:33:21.685Z,18.63
2022-10-25T08:35:48.518Z,18.87
2022-10-25T08:38:16.191Z,19.18
2022-10-25T08:40:53.794Z,19.57
2022-10-25T08:43:58.127Z,19.83
2022-10-25T08:46:37.338Z,20.20
2022-10-25T08:49:24.882Z,20.31
2022-10-25T08:51:54.047Z,20.45
2022-10-25T08:54:23.462Z,20.54
2022-10-25T08:57:15.156Z,19.99
2022-10-25T08:59:45.834Z,19.22
2022-10-25T09:02:18.814Z,19.02
2022-10-25T09:04:45.626Z,19.51
2022-10-25T09:07:31.712Z,19.97
2022-10-25T09:10:32.012Z,20.56
2022-10-25T09:13:14.273Z,21.27
2022-10-25T09:15:45.972Z,21.84
2022-10-25T09:18:17.354Z,22.16
2022-10-25T09:20:51.397Z,22.74
2022-10-25T09:23:29.644Z,23.29
2022-10-25T09:26:03.796Z,23.52
2022-10-25T09:28:42.354Z,23.92
2022-10-25T09:31:14.884Z,24.49
2022-10-25T09:33:45.831Z,24.98
2022-10-25T09:36:14.654Z,25.27
2022-10-25T09:38:46.727Z,25.24
2022-10-25T09:41:26.025Z,25.26
2022-10-25T09:44:10.667Z,25.21
2022-10-25T09:46:53.558Z,25.23
2022-10-25T09:49:39.977Z,25.62
2022-10-25T09:52:12.079Z,26.05
2022-10-25T09:55:01.583Z,26.12
2022-10-25T09:57:28.488Z,25.77
2022-10-25T09:59:55.096Z,25.39
2022-10-25T10:02:25.023Z,24.96
2022-10-25T10:04:52.713Z,24.54
2022-10-25T10:07:37.344Z,24.24
2022-10-25T10:10:10.448Z,24.12
2022-10-25T10:13:16.628Z,23.87
2022-10-25T10:15:55.337Z,23.80
2022-10-25T10:18:30.820Z,23.15
2022-10-25T10:21:09.557Z,22.54
2022-10-25T10:23:44.925Z,22.13
2022-10-25T10:26:19.915Z,21.98
2022-10-25T10:28:49.109Z,22.11
2022-10-25T10:31:17.433Z,22.43
2022-10-25T10:33:51.291Z,22.65
2022-10-25T10:36:20.520Z,22.65
2022-10-25T10:38:47.292Z,22.59
2022-10-25T10:41:28.412Z,22.16
2022-10-25T10:44:13.869Z,21.59
2022-10-25T10:46:45.947Z,21.04
2022-10-25T10:49:14.411Z,20.50
2022-10-25T10:51:45.213Z,20.10
2022-10-25T10:54:34.107Z,19.81
2022-10-25T10:57:06.468Z,19.59
2022-10-25T10:59:50.865Z,19.37
2022-10-25T11:02:25.556Z,19.20
2022-10-25T11:04:55.402Z,19.02
2022-10-25T11:07:34.329Z,18.90
2022-10-25T11:10:16.262Z,18.84
2022-10-25T11:12:43.835Z,18.81
2022-10-25T11:15:11.827Z,18.80
2022-10-25T11:17:49.504Z,18.81
2022-10-25T11:20:33.787Z,18.83
2022-10-25T11:23:22.851Z,18.83
2022-10-25T11:26:04.099Z,18.84
2022-10-25T11:28:40.518Z,18.83
2022-10-25T11:31:48.600Z,18.83
2022-10-25T11:34:22.434Z,18.87
2022-10-25T11:37:27.580Z,18.87
2022-10-25T11:40:15.939Z,18.85
2022-10-25T11:42:58.066Z,18.77
2022-10-25T11:45:43.732Z,18.68
2022-10-25T11:48:34.899Z,18.61
2022-10-25T11:51:30.495Z,18.50
2022-10-25T11:54:16.729Z,18.40
2022-10-25T11:56:50.721Z,18.29
2022-10-25T11:59:57.616Z,18.20
2022-10-25T12:02:39.225Z,18.09
2022-10-25T12:05:33.075Z,18.00
2022-10-25T12:08:23.761Z,17.95
2022-10-25T12:11:01.481Z,17.90
2022-10-25T12:13:28.071Z,17.84
2022-10-25T12:15:57.420Z,17.76
2022-10-25T12:18:45.841Z,17.67
2022-10-25T12:21:21.120Z,17.58
2022-10-25T12:23:51.389Z,17.48
2022-10-25T12:26:35.603Z,17.35
2022-10-25T12:29:05.758Z,17.21
2022-10-25T12:31:43.699Z,17.14
2022-10-25T12:34:41.584Z,17.10
2022-10-25T12:37:30.338Z,17.07
2022-10-25T12:39:57.360Z,17.04
2022-10-25T12:42:49.065Z,17.01
2022-10-25T12:45:37.874Z,16.91
2022-10-25T12:48:38.325Z,16.92
2022-10-25T12:51:26.611Z,16.90
2022-10-25T12:54:11.238Z,16.85
2022-10-25T12:56:53.358Z,16.77
2022-10-25T12:59:42.396Z,16.73
2022-10-25T13:02:33.881Z,16.73
2022-10-25T13:05:38.151Z,16.72
2022-10-25T13:08:06.573Z,16.70
2022-10-25T13:10:39.564Z,16.68
2022-10-25T13:13:15.162Z,16.64
2022-10-25T13:15:46.175Z,16.63
2022-10-25T13:18:31.230Z,16.63
2022-10-25T13:21:01.682Z,16.63
2022-10-25T13:23:45.241Z,16.64
2022-10-25T13:26:17.319Z,16.67
2022-10-25T13:28:48.135Z,16.69
2022-10-25T13:31:33.200Z,16.69
2022-10-25T13:34:11.970Z,16.68
2022-10-25T13:37:30.457Z,16.68
2022-10-25T13:40:27.852Z,16.68
2022-10-25T13:43:01.221Z,16.64
2022-10-25T13:45:37.512Z,16.60
2022-10-25T13:48:23.288Z,16.52
2022-10-25T13:50:56.318Z,16.47
2022-10-25T13:53:37.214Z,16.43
2022-10-25T13:56:03.928Z,16.34
2022-10-25T13:58:32.074Z,16.28
2022-10-25T14:01:17.710Z,16.22
2022-10-25T14:03:53.505Z,16.14
2022-10-25T14:06:29.016Z,16.04
2022-10-25T14:09:08.046Z,15.97
2022-10-25T14:11:37.546Z,15.82
2022-10-25T14:14:10.387Z,15.69
2022-10-25T14:16:46.186Z,15.60
2022-10-25T14:19:46.901Z,15.54
2022-10-25T14:22:32.732Z,15.47
2022-10-25T14:25:04.986Z,15.44
2022-10-25T14:27:34.130Z,15.43
2022-10-25T14:33:05.876Z,15.46
2022-10-25T14:35:35.524Z,15.39
2022-10-25T14:38:15.625Z,15.30
2022-10-25T14:40:50.281Z,15.13
2022-10-25T14:43:28.809Z,14.95
2022-10-25T14:46:03.050Z,14.77
2022-10-25T14:48:30.206Z,14.67
2022-10-25T14:51:04.582Z,14.63
2022-10-25T14:53:31.965Z,14.59
2022-10-25T14:56:04.516Z,14.54
2022-10-25T14:58:42.095Z,14.49
2022-10-25T15:01:13.722Z,14.46
2022-10-25T15:03:51.779Z,14.42
2022-10-25T15:06:22.005Z,14.37
2022-10-25T15:08:51.949Z,14.31
2022-10-25T15:11:22.079Z,14.25
2022-10-25T15:13:51.092Z,14.22
2022-10-25T15:16:40.227Z,14.19
2022-10-25T15:19:18.430Z,14.16
2022-10-25T15:21:48.236Z,14.14
2022-10-25T15:24:19.397Z,14.14
2022-10-25T15:27:00.994Z,14.15
2022-10-25T15:29:45.549Z,14.16
2022-10-25T15:32:17.221Z,14.17
2022-10-25T15:34:49.632Z,14.17
2022-10-25T15:37:18.174Z,14.18
2022-10-25T15:39:47.377Z,14.20
2022-10-25T15:42:15.553Z,14.22
2022-10-25T15:44:42.860Z,14.25
2022-10-25T15:47:42.174Z,14.29
2022-10-25T15:50:19.163Z,14.32
2022-10-25T15:52:46.088Z,14.33
2022-10-25T15:55:26.704Z,14.35
2022-10-25T15:57:53.716Z,14.34
2022-10-25T16:00:25.632Z,14.34
2022-10-25T16:02:56.088Z,14.32
2022-10-25T16:05:36.055Z,14.31
2022-10-25T16:08:04.167Z,14.29
2022-10-25T16:10:31.557Z,14.27
2022-10-25T16:13:09.358Z,14.25
2022-10-25T16:15:36.629Z,14.24
2022-10-25T16:18:03.554Z,14.21
2022-10-25T16:20:30.824Z,14.21
2022-10-25T16:22:57.855Z,14.21
2022-10-25T16:25:30.378Z,14.22
2022-10-25T16:28:00.242Z,14.20
2022-10-25T16:30:33.417Z,14.20
2022-10-25T16:33:00.265Z,14.19
2022-10-25T16:35:26.981Z,14.18
2022-10-25T16:37:53.914Z,14.18
2022-10-25T16:40:21.893Z,14.18
2022-10-25T16:42:49.303Z,14.15
2022-10-25T16:45:19.647Z,14.14
2022-10-25T16:47:46.419Z,14.13
2022-10-25T16:50:14.418Z,14.11
2022-10-25T16:52:41.602Z,14.09
2022-10-25T16:55:09.649Z,14.07
2022-10-25T16:57:36.525Z,14.06
2022-10-25T17:00:03.858Z,14.04
2022-10-25T17:02:30.794Z,14.03
2022-10-25T17:04:57.392Z,14.00
2022-10-25T17:07:24.104Z,13.98
2022-10-25T17:09:50.745Z,13.95
2022-10-25T17:12:17.428Z,13.92
2022-10-25T17:14:44.802Z,13.91
2022-10-25T17:17:11.527Z,13.90
2022-10-25T17:19:38.215Z,13.89
2022-10-25T17:22:04.946Z,13.89
2022-10-25T17:24:35.398Z,13.88
2022-10-25T17:27:02.979Z,13.87
2022-10-25T17:29:30.082Z,13.86
2022-10-25T17:31:57.001Z,13.87
2022-10-25T17:34:23.744Z,13.86
2022-10-25T17:39:23.488Z,13.85
2022-10-25T17:41:50.152Z,13.84
2022-10-25T17:44:16.794Z,13.84
2022-10-25T17:49:15.085Z,13.81
2022-10-25T17:51:43.340Z,13.80
2022-10-25T17:54:10.150Z,13.78
2022-10-25T17:56:37.023Z,13.76
2022-10-25T17:59:05.750Z,13.77
2022-10-25T18:01:34.733Z,13.76
2022-10-25T18:04:01.758Z,13.76
2022-10-25T18:06:30.468Z,13.75
2022-10-25T18:08:58.598Z,13.74
2022-10-25T18:11:27.840Z,13.73
2022-10-25T18:13:57.069Z,13.74
2022-10-25T18:16:28.370Z,13.73
2022-10-25T18:18:56.313Z,13.71
2022-10-25T18:21:23.344Z,13.70
2022-10-25T18:23:57.005Z,13.68
2022-10-25T18:26:24.595Z,13.67
2022-10-25T18:28:51.409Z,13.66
2022-10-25T18:31:19.562Z,13.63
2022-10-25T18:33:49.502Z,13.59
2022-10-25T18:36:18.516Z,13.56
2022-10-25T18:38:46.353Z,13.54
2022-10-25T18:41:16.395Z,13.49
2022-10-25T18:43:43.061Z,13.44
2022-10-25T18:46:10.169Z,13.40
2022-10-25T18:48:37.212Z,13.35
2022-10-25T18:51:06.497Z,13.30
2022-10-25T18:53:38.033Z,13.26
2022-10-25T18:56:14.181Z,13.24
2022-10-25T18:58:42.945Z,13.21
2022-10-25T19:01:16.380Z,13.17
2022-10-25T19:03:44.190Z,13.14
2022-10-25T19:06:11.228Z,13.12
2022-10-25T19:08:38.665Z,13.09
2022-10-25T19:11:08.013Z,13.08
2022-10-25T19:13:35.236Z,13.06
2022-10-25T19:16:03.217Z,13.04
2022-10-25T19:18:31.679Z,13.03
2022-10-25T19:21:02.498Z,13.01
2022-10-25T19:23:29.666Z,12.99
2022-10-25T19:25:58.112Z,12.94
2022-10-25T19:28:24.864Z,12.92
2022-10-25T19:30:51.497Z,12.89
2022-10-25T19:33:18.290Z,12.86
2022-10-25T19:35:44.971Z,12.83
2022-10-25T19:38:11.992Z,12.80
2022-10-25T19:40:43.136Z,12.77
2022-10-25T19:43:09.726Z,12.73
2022-10-25T19:45:41.259Z,12.69
2022-10-25T19:48:07.942Z,12.63
2022-10-25T19:50:34.543Z,12.58
2022-10-25T19:53:01.372Z,12.54
2022-10-25T19:55:28.215Z,12.50
2022-10-25T19:57:54.937Z,12.46
2022-10-25T20:00:21.651Z,12.43
2022-10-25T20:02:48.333Z,12.40
2022-10-25T20:05:15.060Z,12.38
2022-10-25T20:07:42.050Z,12.35
2022-10-25T20:10:08.870Z,12.33
2022-10-25T20:12:35.580Z,12.28
2022-10-25T20:15:02.373Z,12.26
2022-10-25T20:17:29.033Z,12.23
2022-10-25T20:19:55.681Z,12.21
2022-10-25T20:22:22.329Z,12.19
2022-10-25T20:24:48.942Z,12.17
2022-10-25T20:27:15.654Z,12.17
2022-10-25T20:29:42.394Z,12.17
2022-10-25T20:32:09.037Z,12.18
2022-10-25T20:34:36.941Z,12.18
2022-10-25T20:37:04.495Z,12.17
2022-10-25T20:39:31.264Z,12.15
2022-10-25T20:41:57.934Z,12.13
2022-10-25T20:44:24.866Z,12.11
2022-10-25T20:46:51.541Z,12.09
2022-10-25T20:49:18.421Z,12.05
2022-10-25T20:51:45.113Z,12.02
2022-10-25T20:54:11.815Z,12.00
2022-10-25T20:56:38.847Z,11.95
2022-10-25T20:59:05.929Z,11.92
2022-10-25T21:01:32.981Z,11.88
2022-10-25T21:04:00.445Z,11.85
2022-10-25T21:06:27.214Z,11.83
2022-10-25T21:08:53.927Z,11.79
2022-10-25T21:11:20.563Z,11.77
2022-10-25T21:13:47.213Z,11.74
2022-10-25T21:16:15.408Z,11.71
2022-10-25T21:18:42.934Z,11.68
2022-10-25T21:21:17.185Z,11.63
2022-10-25T21:23:45.418Z,11.62
2022-10-25T21:26:12.300Z,11.63
2022-10-25T21:28:40.855Z,11.66
2022-10-25T21:31:13.143Z,11.67
2022-10-25T21:33:41.334Z,11.66
2022-10-25T21:36:10.865Z,11.65
2022-10-25T21:38:37.858Z,11.64
2022-10-25T21:41:08.529Z,11.63
2022-10-25T21:43:36.481Z,11.66
2022-10-25T21:46:04.751Z,11.67
2022-10-25T21:48:31.447Z,11.65
2022-10-25T21:50:58.469Z,11.61
2022-10-25T21:53:25.652Z,11.57
2022-10-25T21:56:06.035Z,11.53
2022-10-25T21:58:33.221Z,11.46
2022-10-25T22:01:00.033Z,11.40
2022-10-25T22:03:29.706Z,11.33
2022-10-25T22:05:57.093Z,11.26
2022-10-25T22:08:23.734Z,11.20
2022-10-25T22:11:02.215Z,11.15
2022-10-25T22:13:28.906Z,11.09
2022-10-25T22:16:04.327Z,11.06
2022-10-25T22:18:31.339Z,11.01
2022-10-25T22:21:00.981Z,10.96
2022-10-25T22:23:29.641Z,10.90
2022-10-25T22:26:13.340Z,10.85
2022-10-25T22:28:41.315Z,10.81
2022-10-25T22:31:11.465Z,10.76
2022-10-25T22:33:38.516Z,10.72
2022-10-25T22:36:08.666Z,10.69
2022-10-25T22:38:35.861Z,10.68
2022-10-25T22:41:09.158Z,10.65
2022-10-25T22:43:37.470Z,10.63
2022-10-25T22:46:06.252Z,10.61
2022-10-25T22:48:34.525Z,10.60
2022-10-25T22:51:01.424Z,10.59
2022-10-25T22:53:28.712Z,10.58
2022-10-25T22:55:59.666Z,10.57
2022-10-25T22:58:28.103Z,10.56
2022-10-25T23:03:38.234Z,10.55
2022-10-25T23:06:07.802Z,10.56
2022-10-25T23:08:34.625Z,10.57
2022-10-25T23:11:07.544Z,10.59
2022-10-25T23:13:35.626Z,10.61
2022-10-25T23:16:03.376Z,10.63
2022-10-25T23:18:30.440Z,10.64
2022-10-25T23:21:00.370Z,10.64
2022-10-25T23:23:28.624Z,10.62
2022-10-25T23:25:59.724Z,10.61
2022-10-25T23:28:29.212Z,10.61
2022-10-25T23:30:55.948Z,10.62
2022-10-25T23:33:22.569Z,10.62
2022-10-25T23:35:49.239Z,10.61
2022-10-25T23:38:15.824Z,10.62
2022-10-25T23:40:45.854Z,10.61
2022-10-25T23:43:12.448Z,10.60
2022-10-25T23:45:41.608Z,10.56
2022-10-25T23:48:08.221Z,10.52
2022-10-25T23:50:34.810Z,10.49
2022-10-25T23:53:01.516Z,10.48
2022-10-25T23:55:28.195Z,10.46
2022-10-25T23:57:58.456Z,10.44
